Time;durP1;ratioP1;P1;durP2;ratioP2;P2;SDS_P1;SDS_P2;PMS_P1;PMS_P2;Temp;Humidity;BMP_temperature;BMP_pressure;BME280_temperature;BME280_humidity;BME280_pressure;Samples;Min_cycle;Max_cycle;Signal;HPM_P1;HPM_P2
2021/05/21 00:00:50;;;;;;;10.77;5.65;;;;;;;10.19;84.14;100375.47;5075623;28;20555;-82
2021/05/21 00:03:18;;;;;;;8.88;6.35;;;;;;;10.13;84.59;100376.69;5075264;28;20047;-81
2021/05/21 00:05:46;;;;;;;8.68;5.82;;;;;;;10.14;84.67;100375.75;5075385;28;20120;-82
2021/05/21 00:08:13;;;;;;;8.02;5.65;;;;;;;10.17;84.33;100378.25;5075586;28;20132;-82
2021/05/21 00:10:42;;;;;;;10.15;6.10;;;;;;;10.10;84.80;100382.19;5075358;28;20114;-83
2021/05/21 00:13:10;;;;;;;9.35;5.80;;;;;;;9.96;85.74;100377.63;5075256;28;20049;-82
2021/05/21 00:15:38;;;;;;;8.93;5.68;;;;;;;9.84;86.46;100372.97;5075249;28;20051;-83
2021/05/21 00:18:07;;;;;;;9.85;6.00;;;;;;;9.74;87.16;100372.63;5074906;28;20041;-78
2021/05/21 00:20:34;;;;;;;12.35;6.32;;;;;;;9.74;87.11;100371.75;5075396;28;20490;-76
2021/05/21 00:23:02;;;;;;;9.65;6.35;;;;;;;9.62;87.41;100361.78;5075033;28;20044;-77
2021/05/21 00:25:30;;;;;;;9.10;6.15;;;;;;;9.58;88.00;100369.09;5075245;28;20120;-74
2021/05/21 00:27:58;;;;;;;10.43;6.45;;;;;;;9.60;87.91;100375.19;5074936;28;20542;-75
2021/05/21 00:30:26;;;;;;;12.88;6.43;;;;;;;9.60;88.11;100369.84;5074492;28;20041;-75
2021/05/21 00:32:56;;;;;;;12.20;6.18;;;;;;;9.57;87.99;100363.84;5074692;28;20098;-76
2021/05/21 00:35:25;;;;;;;8.43;6.20;;;;;;;9.57;87.92;100364.72;5074913;28;20049;-75
2021/05/21 00:37:54;;;;;;;12.05;7.05;;;;;;;9.58;87.80;100369.09;5075010;28;20048;-77
2021/05/21 00:40:22;;;;;;;9.32;6.63;;;;;;;9.65;87.45;100373.16;5074041;28;20079;-75
2021/05/21 00:42:50;;;;;;;9.18;5.47;;;;;;;9.62;87.47;100367.09;5074697;28;20044;-75
2021/05/21 00:45:18;;;;;;;10.05;6.78;;;;;;;9.17;87.73;100297.66;5074463;28;20461;-74
2021/05/21 00:47:46;;;;;;;9.73;6.43;;;;;;;9.59;87.46;100372.59;5074502;28;20393;-74
2021/05/21 00:50:14;;;;;;;9.82;6.35;;;;;;;9.63;87.32;100369.69;5074551;28;20048;-74
2021/05/21 00:52:44;;;;;;;8.10;5.90;;;;;;;9.59;87.41;100370.81;5073679;28;20515;-74
2021/05/21 00:55:13;;;;;;;11.25;5.82;;;;;;;9.59;87.39;100368.13;5074475;28;20102;-74
2021/05/21 00:57:42;;;;;;;9.20;6.40;;;;;;;9.44;87.96;100359.16;5074447;28;20048;-74
2021/05/21 01:00:12;;;;;;;12.02;6.38;;;;;;;9.55;87.76;100363.91;5074149;28;20074;-75
2021/05/21 01:02:40;;;;;;;8.40;5.82;;;;;;;9.37;87.66;100336.50;5074402;28;20135;-76
2021/05/21 01:05:09;;;;;;;8.82;5.97;;;;;;;9.52;87.88;100369.41;5074122;28;20045;-77
2021/05/21 01:07:37;;;;;;;9.88;5.80;;;;;;;9.46;87.85;100359.09;5074192;28;20097;-77
2021/05/21 01:10:06;;;;;;;8.60;5.78;;;;;;;9.53;88.04;100373.78;5074074;28;20047;-77
2021/05/21 01:12:34;;;;;;;9.18;5.97;;;;;;;9.46;88.19;100377.75;5090340;28;20161;-76
2021/05/21 01:15:03;;;;;;;8.73;6.32;;;;;;;9.44;88.64;100376.94;5074053;28;20067;-74
2021/05/21 01:17:32;;;;;;;7.85;6.07;;;;;;;9.44;88.60;100379.59;5073790;28;20401;-76
2021/05/21 01:20:00;;;;;;;10.80;6.47;;;;;;;9.40;88.78;100383.38;5073802;28;20087;-76
2021/05/21 01:22:29;;;;;;;9.35;6.40;;;;;;;9.41;88.74;100379.78;5073506;28;20047;-76
2021/05/21 01:24:57;;;;;;;8.40;6.18;;;;;;;9.41;88.64;100374.44;5073748;28;20040;-74
2021/05/21 01:27:25;;;;;;;11.27;6.75;;;;;;;9.41;88.80;100383.28;5072371;28;20052;-75
2021/05/21 01:29:53;;;;;;;11.07;6.90;;;;;;;9.29;89.46;100370.66;5073762;28;20044;-75
2021/05/21 01:32:21;;;;;;;9.98;7.32;;;;;;;9.27;89.72;100385.00;5073619;28;20044;-74
2021/05/21 01:34:50;;;;;;;9.40;7.25;;;;;;;9.15;90.39;100381.13;5073741;28;20079;-76
2021/05/21 01:37:19;;;;;;;9.27;6.78;;;;;;;9.18;90.45;100389.00;5073199;28;20045;-80
2021/05/21 01:39:51;;;;;;;10.00;7.47;;;;;;;9.18;90.33;100376.53;5074025;28;20075;-76
2021/05/21 01:42:20;;;;;;;9.00;6.72;;;;;;;9.14;91.00;100390.94;5073402;28;20055;-76
2021/05/21 01:44:54;;;;;;;10.40;7.07;;;;;;;9.06;91.18;100392.25;5073810;28;20041;-77
2021/05/21 01:47:22;;;;;;;13.73;7.30;;;;;;;9.02;91.66;100393.38;5073230;28;20414;-75
2021/05/21 01:49:50;;;;;;;10.27;7.85;;;;;;;8.97;92.19;100396.25;5073118;28;20493;-76
2021/05/21 01:52:18;;;;;;;10.68;7.65;;;;;;;8.83;93.10;100396.09;5073303;28;20123;-76
2021/05/21 01:54:46;;;;;;;11.27;8.45;;;;;;;8.80;93.73;100404.25;5073595;28;20040;-76
2021/05/21 01:57:14;;;;;;;10.25;7.80;;;;;;;8.73;94.21;100403.69;5073063;28;20044;-77
2021/05/21 01:59:42;;;;;;;10.55;7.68;;;;;;;8.67;94.79;100398.66;5072374;28;20056;-76
2021/05/21 02:02:10;;;;;;;9.80;7.30;;;;;;;8.59;94.88;100401.72;5072791;28;20044;-77
2021/05/21 02:04:39;;;;;;;10.43;7.88;;;;;;;8.57;95.47;100392.09;5073202;28;20040;-78
2021/05/21 02:07:14;;;;;;;12.95;8.07;;;;;;;8.74;94.42;100399.22;5071856;28;20049;-77
2021/05/21 02:09:53;;;;;;;10.75;7.97;;;;;;;8.83;94.09;100393.44;5077730;28;20052;-75
2021/05/21 02:12:22;;;;;;;12.27;7.78;;;;;;;8.86;93.62;100393.28;5077194;28;20058;-75
2021/05/21 02:14:51;;;;;;;10.10;7.30;;;;;;;8.92;93.12;100387.66;5073560;28;20056;-76
2021/05/21 02:17:21;;;;;;;9.70;7.60;;;;;;;8.88;93.32;100391.44;5073139;28;20394;-74
2021/05/21 02:19:49;;;;;;;11.25;7.78;;;;;;;8.74;93.59;100377.97;5073401;28;20090;-77
2021/05/21 02:22:19;;;;;;;12.05;8.05;;;;;;;8.81;93.64;100395.34;5073074;28;20040;-77
2021/05/21 02:24:47;;;;;;;9.80;7.85;;;;;;;8.76;93.66;100397.34;5072847;28;20114;-76
2021/05/21 02:27:15;;;;;;;12.52;8.40;;;;;;;8.95;93.19;100392.81;5072935;28;20443;-78
2021/05/21 02:29:44;;;;;;;11.48;8.38;;;;;;;9.02;92.80;100390.72;5073430;28;20040;-77
2021/05/21 02:32:12;;;;;;;12.38;7.97;;;;;;;9.04;92.35;100386.16;5072996;28;20124;-78
2021/05/21 02:34:40;;;;;;;10.73;8.63;;;;;;;8.88;93.13;100383.44;5072954;28;20048;-76
2021/05/21 02:37:08;;;;;;;10.85;7.93;;;;;;;8.88;93.28;100386.97;5072957;28;20105;-77
2021/05/21 02:39:36;;;;;;;10.13;8.00;;;;;;;8.84;93.65;100387.19;5072536;28;20052;-78
2021/05/21 02:42:05;;;;;;;11.93;8.10;;;;;;;8.83;93.88;100388.13;5072474;28;20374;-75
2021/05/21 02:44:33;;;;;;;10.85;8.30;;;;;;;8.71;93.61;100362.16;5072660;28;20125;-77
2021/05/21 02:47:02;;;;;;;12.30;8.73;;;;;;;8.73;94.28;100377.09;5072734;28;20461;-77
2021/05/21 02:49:31;;;;;;;11.43;8.38;;;;;;;8.76;94.12;100397.34;5072310;28;20037;-75
2021/05/21 02:51:59;;;;;;;14.43;9.02;;;;;;;8.70;94.53;100393.22;5072630;28;20094;-76
2021/05/21 02:54:27;;;;;;;13.90;9.20;;;;;;;8.68;94.62;100392.41;5072353;28;20452;-76
2021/05/21 02:56:55;;;;;;;12.82;9.00;;;;;;;8.72;94.06;100395.78;5072866;28;20047;-75
2021/05/21 02:59:23;;;;;;;11.45;8.38;;;;;;;8.68;93.90;100394.22;5072372;28;20052;-74
2021/05/21 03:01:51;;;;;;;14.52;9.52;;;;;;;8.57;94.24;100392.94;5072732;28;20045;-75
2021/05/21 03:04:20;;;;;;;12.85;8.85;;;;;;;8.63;94.12;100390.94;5072300;28;20115;-75
2021/05/21 03:06:48;;;;;;;13.95;9.10;;;;;;;8.53;94.08;100380.75;5072362;28;20114;-75
2021/05/21 03:09:16;;;;;;;12.80;9.25;;;;;;;8.56;94.02;100390.38;5072024;28;20040;-76
2021/05/21 03:11:44;;;;;;;14.13;9.70;;;;;;;8.49;94.10;100389.84;5072523;28;20040;-75
2021/05/21 03:14:12;;;;;;;16.00;8.60;;;;;;;8.49;94.42;100387.19;5072587;28;20079;-75
2021/05/21 03:16:39;;;;;;;15.80;9.15;;;;;;;8.40;94.80;100379.66;5074613;28;20474;-76
2021/05/21 03:19:07;;;;;;;12.98;9.20;;;;;;;8.52;94.48;100381.69;5076541;28;20068;-75
2021/05/21 03:21:36;;;;;;;12.43;9.40;;;;;;;8.46;94.41;100379.31;5075722;28;20051;-76
2021/05/21 03:24:05;;;;;;;12.38;9.18;;;;;;;8.48;94.25;100384.56;5076399;28;20051;-74
2021/05/21 03:26:33;;;;;;;13.82;9.07;;;;;;;8.49;94.39;100379.19;5075783;28;20040;-74
2021/05/21 03:29:03;;;;;;;11.68;8.63;;;;;;;8.63;94.04;100388.28;5076180;28;20047;-75
2021/05/21 03:31:31;;;;;;;12.13;8.25;;;;;;;8.80;93.27;100389.16;5075620;28;20063;-75
2021/05/21 03:33:59;;;;;;;13.13;9.63;;;;;;;8.87;92.66;100395.00;5075852;28;20044;-75
2021/05/21 03:36:27;;;;;;;11.93;8.93;;;;;;;8.87;92.64;100402.97;5075752;28;20541;-75
2021/05/21 03:38:58;;;;;;;13.00;8.63;;;;;;;8.92;91.76;100387.66;5075929;28;20094;-74
2021/05/21 03:41:25;;;;;;;10.98;8.65;;;;;;;9.22;90.65;100395.00;5075342;28;20420;-75
2021/05/21 03:43:53;;;;;;;10.82;8.43;;;;;;;9.31;90.68;100394.53;5076040;28;20098;-74
2021/05/21 03:46:21;;;;;;;10.65;7.63;;;;;;;9.97;88.12;100390.00;5075258;28;20052;-75
2021/05/21 03:48:49;;;;;;;10.55;7.10;;;;;;;10.72;82.91;100379.59;5075661;28;20052;-74
2021/05/21 03:51:19;;;;;;;9.15;6.75;;;;;;;11.93;78.30;100383.72;5075216;28;20053;-75
2021/05/21 03:53:46;;;;;;;9.50;6.30;;;;;;;12.54;75.03;100380.59;5075820;28;20049;-74
2021/05/21 03:56:15;;;;;;;8.73;5.68;;;;;;;13.36;71.21;100395.59;5075523;28;20405;-75
2021/05/21 03:58:44;;;;;;;10.77;6.55;;;;;;;13.65;69.74;100390.88;5075471;28;20045;-75
2021/05/21 04:01:11;;;;;;;9.32;5.97;;;;;;;14.08;68.48;100390.47;5075627;28;20477;-75
2021/05/21 04:03:40;;;;;;;8.05;5.38;;;;;;;14.72;65.12;100383.06;5075395;28;20048;-75
2021/05/21 04:06:07;;;;;;;9.43;5.90;;;;;;;15.22;63.35;100375.66;5075624;28;20093;-73
2021/05/21 04:08:35;;;;;;;8.82;5.60;;;;;;;15.26;61.92;100382.53;5074875;28;20531;-74
2021/05/21 04:11:03;;;;;;;6.93;5.35;;;;;;;15.33;61.32;100378.34;5075104;28;20036;-74
2021/05/21 04:13:32;;;;;;;9.60;5.30;;;;;;;15.39;61.88;100382.41;5074818;28;20044;-73
2021/05/21 04:15:59;;;;;;;8.98;4.90;;;;;;;15.85;59.91;100381.50;5075059;28;20063;-73
2021/05/21 04:18:27;;;;;;;10.73;5.50;;;;;;;15.63;60.68;100374.28;5074576;28;20094;-75
2021/05/21 04:20:56;;;;;;;12.07;5.93;;;;;;;15.83;59.84;100387.00;5075199;28;20040;-74
2021/05/21 04:23:24;;;;;;;7.60;5.38;;;;;;;16.02;58.95;100395.31;5074634;28;20070;-74
2021/05/21 04:25:52;;;;;;;8.18;5.45;;;;;;;16.37;58.61;100394.28;5074894;28;20090;-76
2021/05/21 04:28:20;;;;;;;7.40;5.00;;;;;;;17.38;56.04;100388.50;5074331;28;20052;-75
2021/05/21 04:30:48;;;;;;;9.23;5.35;;;;;;;17.17;56.04;100391.16;5075045;28;20102;-80
2021/05/21 04:33:16;;;;;;;6.95;4.88;;;;;;;16.64;57.48;100387.59;5075213;28;20040;-80
2021/05/21 04:35:44;;;;;;;11.25;5.53;;;;;;;17.08;56.45;100383.88;5074614;28;20048;-79
2021/05/21 04:38:12;;;;;;;8.23;5.22;;;;;;;17.40;55.46;100392.75;5074875;28;20395;-79
2021/05/21 04:40:40;;;;;;;6.68;5.30;;;;;;;17.48;55.00;100388.56;5074363;28;20087;-83
2021/05/21 04:43:08;;;;;;;10.15;5.82;;;;;;;18.33;53.63;100382.78;5074977;28;20054;-82
2021/05/21 04:45:35;;;;;;;8.07;5.55;;;;;;;18.29;52.95;100379.53;5074493;28;20045;-82
2021/05/21 04:48:05;;;;;;;9.18;5.75;;;;;;;18.07;53.72;100388.72;5074827;28;20082;-84
2021/05/21 04:50:33;;;;;;;8.68;5.60;;;;;;;18.37;53.41;100384.25;5074183;28;20047;-83
2021/05/21 04:53:00;;;;;;;8.32;5.60;;;;;;;18.63;52.52;100392.69;5074468;28;20101;-82
2021/05/21 04:55:28;;;;;;;8.63;5.32;;;;;;;18.52;52.54;100390.94;5074146;28;20397;-83
2021/05/21 04:57:56;;;;;;;7.72;5.20;;;;;;;19.09;51.04;100392.00;5074390;28;20041;-77
2021/05/21 05:00:24;;;;;;;10.00;5.45;;;;;;;19.02;51.44;100388.16;5072975;28;20048;-78
2021/05/21 05:02:52;;;;;;;6.40;5.03;;;;;;;19.03;50.49;100385.31;5074202;28;20102;-79
2021/05/21 05:05:20;;;;;;;8.60;5.78;;;;;;;19.09;51.72;100389.28;5074244;28;20042;-79
2021/05/21 05:07:48;;;;;;;7.38;5.18;;;;;;;19.30;50.24;100387.28;5074237;28;20645;-77
2021/05/21 05:10:16;;;;;;;9.18;5.30;;;;;;;19.27;50.07;100382.16;5074027;28;20048;-76
2021/05/21 05:12:44;;;;;;;8.88;5.20;;;;;;;19.70;50.00;100383.50;5073731;28;20040;-76
2021/05/21 05:15:12;;;;;;;10.15;5.78;;;;;;;19.90;48.87;100385.13;5073911;28;20048;-76
2021/05/21 05:17:40;;;;;;;8.00;5.15;;;;;;;20.05;48.27;100381.94;5073589;28;20052;-76
2021/05/21 05:20:09;;;;;;;8.95;5.63;;;;;;;19.81;48.59;100386.03;5073831;28;20033;-77
2021/05/21 05:22:38;;;;;;;7.20;5.15;;;;;;;20.29;47.51;100382.25;5073744;28;20037;-77
2021/05/21 05:25:07;;;;;;;9.13;5.38;;;;;;;20.11;47.33;100393.03;5073911;28;20037;-76
2021/05/21 05:27:36;;;;;;;9.88;5.72;;;;;;;20.78;45.70;100390.91;5074043;28;20045;-74
2021/05/21 05:30:05;;;;;;;7.75;5.55;;;;;;;19.78;47.35;100336.75;5074006;28;20044;-76
2021/05/21 05:32:34;;;;;;;8.05;5.72;;;;;;;20.24;46.42;100377.25;5073318;28;20048;-75
2021/05/21 05:35:02;;;;;;;8.45;5.40;;;;;;;20.15;47.49;100375.47;5073702;28;20036;-75
2021/05/21 05:37:30;;;;;;;7.90;5.57;;;;;;;19.93;48.78;100384.84;5073233;28;20044;-74
2021/05/21 05:39:59;;;;;;;8.32;5.40;;;;;;;19.55;47.89;100390.34;5073331;28;20056;-75
2021/05/21 05:42:26;;;;;;;7.97;5.85;;;;;;;20.00;48.48;100388.66;5075043;28;20053;-73
2021/05/21 05:44:55;;;;;;;7.53;5.75;;;;;;;19.73;48.54;100392.19;5076628;28;20485;-74
2021/05/21 05:47:23;;;;;;;10.40;6.05;;;;;;;19.55;48.92;100388.50;5076619;28;20043;-78
2021/05/21 05:49:51;;;;;;;8.48;5.88;;;;;;;20.21;46.07;100392.97;5077422;28;20040;-79
2021/05/21 05:52:19;;;;;;;10.30;5.20;;;;;;;20.78;46.17;100389.06;5073740;28;20106;-82
2021/05/21 05:54:47;;;;;;;8.80;5.50;;;;;;;21.15;45.19;100397.03;5073254;28;20048;-78
2021/05/21 05:57:16;;;;;;;11.65;5.97;;;;;;;21.32;45.19;100397.16;5073450;28;20045;-77
2021/05/21 05:59:43;;;;;;;8.98;5.85;;;;;;;21.74;44.05;100383.72;5073023;28;20044;-80
2021/05/21 06:02:11;;;;;;;8.50;5.47;;;;;;;22.14;43.79;100385.81;5073458;28;20055;-78
2021/05/21 06:04:39;;;;;;;9.55;5.28;;;;;;;22.39;43.43;100384.06;5072840;28;20090;-75
2021/05/21 06:07:07;;;;;;;9.65;6.10;;;;;;;22.56;43.46;100385.78;5073353;28;20123;-81
2021/05/21 06:09:35;;;;;;;8.90;5.45;;;;;;;22.84;42.42;100389.09;5072499;28;20040;-72
2021/05/21 06:12:04;;;;;;;9.80;5.63;;;;;;;22.97;41.41;100395.91;5071263;28;20064;-75
2021/05/21 06:14:33;;;;;;;7.22;5.38;;;;;;;22.73;42.55;100402.97;5057824;28;20044;-77
2021/05/21 06:17:02;;;;;;;8.18;5.20;;;;;;;22.64;40.75;100386.81;5059387;28;20435;-76
2021/05/21 06:19:30;;;;;;;7.05;4.75;;;;;;;22.97;41.06;100382.28;5061550;28;20044;-74
2021/05/21 06:21:58;;;;;;;7.22;5.57;;;;;;;23.53;40.57;100372.41;5072183;28;20105;-75
2021/05/21 06:24:26;;;;;;;11.32;6.40;;;;;;;23.76;39.84;100378.00;5071826;28;20040;-71
2021/05/21 06:29:41;;;;;;;10.55;6.00;;;;;;;23.28;40.32;100374.31;5072861;28;20048;-73
2021/05/21 06:32:09;;;;;;;8.27;6.10;;;;;;;23.31;40.95;100361.22;5072504;28;20460;-72
2021/05/21 06:34:37;;;;;;;9.55;6.20;;;;;;;23.40;41.11;100357.47;5072393;28;20070;-75
2021/05/21 06:37:05;;;;;;;9.65;6.68;;;;;;;23.55;41.64;100373.94;5072579;28;20045;-75
2021/05/21 06:39:33;;;;;;;9.27;6.03;;;;;;;23.74;39.41;100370.03;5072856;28;20509;-73
2021/05/21 06:42:03;;;;;;;8.10;6.00;;;;;;;23.88;40.94;100366.56;5072320;28;20048;-78
2021/05/21 06:44:32;;;;;;;8.48;5.90;;;;;;;24.01;41.62;100379.63;5072280;28;20382;-77
2021/05/21 06:47:01;;;;;;;12.18;6.47;;;;;;;23.87;39.33;100367.59;5072782;28;20048;-80
2021/05/21 06:49:32;;;;;;;10.20;5.78;;;;;;;23.88;38.50;100372.00;5065140;28;20044;-77
2021/05/21 06:51:59;;;;;;;9.57;6.30;;;;;;;23.97;39.22;100361.94;5057683;28;20048;-80
2021/05/21 06:54:27;;;;;;;9.15;6.07;;;;;;;23.67;39.30;100360.84;5076535;28;20044;-72
2021/05/21 06:56:55;;;;;;;7.78;6.13;;;;;;;23.09;39.92;100378.25;5076566;28;20055;-74
2021/05/21 06:59:23;;;;;;;11.45;6.38;;;;;;;22.13;41.27;100370.53;5076623;28;20048;-75
2021/05/21 07:01:51;;;;;;;9.60;5.93;;;;;;;21.68;43.21;100379.78;5065439;28;20182;-77
2021/05/21 07:04:20;;;;;;;10.23;6.88;;;;;;;21.20;43.65;100363.13;5056172;28;20052;-74
2021/05/21 07:06:48;;;;;;;11.68;7.28;;;;;;;21.24;44.93;100369.97;5056520;28;20054;-77
2021/05/21 07:09:16;;;;;;;11.27;7.82;;;;;;;21.09;45.65;100370.53;5056337;28;20392;-77
2021/05/21 07:11:43;;;;;;;14.43;6.75;;;;;;;21.07;46.13;100367.13;5056351;28;20048;-76
2021/05/21 07:14:11;;;;;;;11.30;6.68;;;;;;;20.92;44.31;100365.97;5074454;28;20057;-74
2021/05/21 07:16:39;;;;;;;10.88;6.28;;;;;;;20.76;44.59;100365.84;5076192;28;20063;-76
2021/05/21 07:19:09;;;;;;;8.32;5.88;;;;;;;20.65;45.09;100356.06;5075968;28;20048;-77
2021/05/21 07:21:50;;;;;;;12.63;6.13;;;;;;;20.74;43.93;100344.28;5076207;28;20139;-76
2021/05/21 07:24:18;;;;;;;12.85;5.30;;;;;;;20.68;43.74;100352.19;5075980;28;20037;-77
2021/05/21 07:26:46;;;;;;;7.53;4.30;;;;;;;20.38;44.08;100346.13;5075884;28;20055;-77
2021/05/21 07:29:14;;;;;;;7.15;4.22;;;;;;;20.10;47.13;100349.84;5076010;28;20098;-77
2021/05/21 07:31:42;;;;;;;7.13;3.65;;;;;;;20.21;46.03;100364.03;5079412;28;20533;-75
2021/05/21 07:34:12;;;;;;;7.10;2.78;;;;;;;20.27;43.85;100357.16;5075795;28;20053;-80
2021/05/21 07:36:40;;;;;;;4.40;2.10;;;;;;;20.21;41.94;100355.91;5074739;28;20413;-76
2021/05/21 07:39:09;;;;;;;5.57;3.05;;;;;;;20.08;42.80;100349.16;5075710;28;20048;-75
2021/05/21 07:41:37;;;;;;;5.78;2.60;;;;;;;20.09;42.74;100345.44;5075231;28;20470;-76
2021/05/21 07:44:07;;;;;;;6.28;3.22;;;;;;;20.06;43.61;100345.72;5074890;28;20852;-76
2021/05/21 07:46:35;;;;;;;6.20;3.20;;;;;;;19.88;42.50;100338.44;5075415;28;20366;-76
2021/05/21 07:49:03;;;;;;;4.05;2.42;;;;;;;19.82;43.19;100349.00;5075470;28;20048;-79
2021/05/21 07:51:32;;;;;;;6.28;2.90;;;;;;;19.82;43.20;100351.69;5075424;28;20041;-74
2021/05/21 07:54:00;;;;;;;4.45;2.85;;;;;;;19.86;43.11;100340.41;5075103;28;20517;-76
2021/05/21 07:56:29;;;;;;;6.32;2.40;;;;;;;19.86;43.29;100344.97;5075287;28;20071;-76
2021/05/21 07:58:57;;;;;;;5.63;2.72;;;;;;;19.82;42.84;100352.56;5060840;28;20061;-77
2021/05/21 08:01:25;;;;;;;5.07;2.70;;;;;;;19.85;43.80;100354.09;5054721;28;20073;-74
2021/05/21 08:03:53;;;;;;;4.20;2.38;;;;;;;19.79;41.92;100354.72;5055064;28;20512;-76
2021/05/21 08:06:20;;;;;;;7.00;3.05;;;;;;;19.79;42.12;100355.56;5055301;28;20045;-75
2021/05/21 08:08:49;;;;;;;6.13;3.05;;;;;;;19.63;43.11;100344.50;5055005;28;20047;-77
2021/05/21 08:11:17;;;;;;;5.65;2.47;;;;;;;19.65;43.74;100337.09;5055098;28;20128;-77
2021/05/21 08:13:45;;;;;;;5.32;2.83;;;;;;;19.71;44.86;100340.06;5070684;28;20397;-77
2021/05/21 08:16:14;;;;;;;10.15;3.63;;;;;;;19.55;43.41;100317.31;5075159;28;20045;-74
2021/05/21 08:18:42;;;;;;;4.53;3.20;;;;;;;19.66;45.37;100341.50;5075099;28;20377;-75
2021/05/21 08:21:10;;;;;;;6.97;4.10;;;;;;;19.77;45.74;100332.34;5075050;28;20076;-75
2021/05/21 08:23:38;;;;;;;8.18;4.05;;;;;;;19.42;46.73;100310.38;5074666;28;20044;-76
2021/05/21 08:26:07;;;;;;;6.20;3.60;;;;;;;19.52;45.84;100318.47;5075006;28;20118;-77
2021/05/21 08:28:35;;;;;;;5.03;2.38;;;;;;;19.71;44.29;100323.81;5073846;28;20421;-74
2021/05/21 08:31:05;;;;;;;6.07;2.92;;;;;;;19.63;43.60;100309.34;5074779;28;20140;-77
2021/05/21 08:33:38;;;;;;;6.07;2.33;;;;;;;19.82;40.77;100314.66;5074687;28;20102;-75
2021/05/21 08:36:07;;;;;;;4.82;1.88;;;;;;;19.72;41.61;100321.97;5074591;28;20124;-72
2021/05/21 08:38:35;;;;;;;3.95;1.90;;;;;;;19.28;41.75;100313.53;5074923;28;20465;-76
2021/05/21 08:41:04;;;;;;;5.13;2.85;;;;;;;19.67;41.84;100333.22;5074497;28;20405;-77
2021/05/21 08:43:33;;;;;;;2.83;1.80;;;;;;;19.77;42.95;100335.88;5072743;28;20562;-77
2021/05/21 08:46:01;;;;;;;5.40;3.53;;;;;;;19.76;40.99;100319.81;5074378;28;20061;-76
2021/05/21 08:48:32;;;;;;;3.33;1.60;;;;;;;19.94;40.10;100334.25;5074288;28;20036;-72
2021/05/21 08:51:01;;;;;;;4.38;1.80;;;;;;;19.90;39.22;100317.47;5073198;28;20049;-75
2021/05/21 08:53:28;;;;;;;4.43;1.67;;;;;;;19.91;38.03;100311.06;5074235;28;20041;-74
2021/05/21 08:55:56;;;;;;;3.63;1.63;;;;;;;20.00;38.42;100320.13;5074066;28;20044;-75
2021/05/21 08:58:25;;;;;;;3.63;1.90;;;;;;;19.94;38.05;100299.91;5074321;28;20055;-74
2021/05/21 09:00:53;;;;;;;5.85;1.90;;;;;;;19.91;40.01;100302.06;5074299;28;20458;-74
2021/05/21 09:03:22;;;;;;;4.20;1.48;;;;;;;19.92;38.35;100312.75;5072666;28;20505;-79
2021/05/21 09:06:16;;;;;;;3.35;1.67;;;;;;;19.89;37.82;100302.22;5074332;28;20044;-77
2021/05/21 09:08:46;;;;;;;3.22;1.52;;;;;;;19.82;39.00;100306.53;5074098;28;20477;-72
2021/05/21 09:11:30;;;;;;;3.00;1.60;;;;;;;19.86;39.46;100297.09;5072970;28;20386;-73
2021/05/21 09:14:04;;;;;;;3.03;1.38;;;;;;;19.58;38.90;100292.69;5072443;28;20041;-73
2021/05/21 09:16:34;;;;;;;2.80;1.33;;;;;;;19.63;39.30;100293.09;5074028;28;20042;-74
2021/05/21 09:19:13;;;;;;;4.57;1.90;;;;;;;19.72;39.88;100286.78;5073953;28;20139;-75
2021/05/21 09:21:54;;;;;;;5.15;1.75;;;;;;;19.38;40.19;100292.72;5073840;28;20036;-75
2021/05/21 09:24:26;;;;;;;3.92;1.55;;;;;;;19.69;39.75;100284.41;5073729;28;20123;-77
2021/05/21 09:26:56;;;;;;;3.95;2.08;;;;;;;19.76;38.99;100284.63;5073812;28;20045;-77
2021/05/21 09:29:36;;;;;;;3.05;1.80;;;;;;;19.71;39.89;100283.22;5073798;28;20044;-77
2021/05/21 09:32:16;;;;;;;3.17;1.77;;;;;;;19.74;39.22;100284.78;5073643;28;20041;-76
2021/05/21 09:34:47;;;;;;;2.70;1.63;;;;;;;19.69;39.82;100271.72;5073716;28;20478;-75
2021/05/21 09:37:24;;;;;;;5.57;2.85;;;;;;;19.85;41.33;100276.44;5084047;28;20040;-80
2021/05/21 09:40:06;;;;;;;2.97;1.40;;;;;;;19.84;39.28;100282.88;5089152;28;20090;-76
2021/05/21 09:42:49;;;;;;;3.15;1.50;;;;;;;19.81;39.38;100287.75;5077824;28;20048;-76
2021/05/21 09:45:28;;;;;;;3.47;1.55;;;;;;;19.87;39.95;100277.16;5073178;28;20032;-77
2021/05/21 09:47:59;;;;;;;4.53;1.60;;;;;;;19.97;40.80;100285.22;5073832;28;20049;-81
2021/05/21 09:50:44;;;;;;;3.83;1.70;;;;;;;20.00;40.02;100283.06;5073176;28;20460;-76
2021/05/21 09:53:14;;;;;;;2.65;1.50;;;;;;;19.93;38.64;100281.13;5073264;28;20044;-74
2021/05/21 09:55:45;;;;;;;2.50;1.40;;;;;;;19.90;40.68;100276.88;5073550;28;20046;-78
2021/05/21 09:58:25;;;;;;;3.20;1.70;;;;;;;19.92;40.81;100257.75;5073167;28;20048;-75
2021/05/21 10:01:11;;;;;;;3.38;1.70;;;;;;;20.19;40.82;100281.25;5073264;28;20050;-74
2021/05/21 10:03:40;;;;;;;2.75;1.38;;;;;;;20.09;41.52;100270.47;5072844;28;20044;-73
2021/05/21 10:06:09;;;;;;;5.13;1.58;;;;;;;20.28;40.53;100269.50;5074089;28;20041;-76
2021/05/21 10:08:39;;;;;;;3.80;1.80;;;;;;;20.28;39.44;100283.03;5080560;28;20045;-79
2021/05/21 10:11:07;;;;;;;2.17;1.30;;;;;;;20.24;39.60;100273.50;5073305;28;20503;-79
2021/05/21 10:13:42;;;;;;;3.72;1.45;;;;;;;20.29;40.67;100271.19;5072125;28;20051;-81
2021/05/21 10:16:11;;;;;;;3.03;1.52;;;;;;;20.16;39.69;100259.88;5072769;28;20178;-80
2021/05/21 10:18:42;;;;;;;2.22;1.48;;;;;;;20.35;40.37;100270.56;5072873;28;20071;-77
2021/05/21 10:21:11;;;;;;;3.33;1.30;;;;;;;20.14;40.01;100251.03;5071913;28;20079;-78
2021/05/21 10:23:45;;;;;;;3.40;1.33;;;;;;;20.21;39.65;100252.16;5071285;28;20057;-77
2021/05/21 10:26:16;;;;;;;3.33;1.23;;;;;;;20.26;39.57;100257.94;5071271;28;20147;-76
2021/05/21 10:28:49;;;;;;;1.45;1.20;;;;;;;20.01;40.30;100251.44;5072284;28;20059;-73
2021/05/21 10:31:20;;;;;;;2.72;1.40;;;;;;;20.30;42.45;100257.50;5073011;28;20049;-74
2021/05/21 10:34:11;;;;;;;2.20;1.40;;;;;;;20.24;39.90;100241.00;5072644;28;20033;-76
2021/05/21 10:36:39;;;;;;;4.00;1.50;;;;;;;20.28;39.56;100242.41;5072746;28;20040;-77
2021/05/21 10:39:10;;;;;;;6.40;1.60;;;;;;;20.31;39.08;100225.84;5072561;28;20378;-79
2021/05/21 10:41:39;;;;;;;3.60;1.40;;;;;;;20.56;39.29;100235.91;5072951;28;20044;-77
2021/05/21 10:44:21;;;;;;;3.03;1.20;;;;;;;20.36;38.48;100209.94;5072031;28;20045;-77
2021/05/21 10:46:50;;;;;;;2.58;1.58;;;;;;;20.29;40.18;100222.44;5072710;28;20045;-85
2021/05/21 10:49:25;;;;;;;4.65;2.40;;;;;;;20.14;40.44;100181.50;5072642;28;20127;-78
2021/05/21 10:51:54;;;;;;;5.07;2.80;;;;;;;20.63;40.97;100224.44;5072186;28;20389;-76
2021/05/21 10:54:32;;;;;;;3.42;1.50;;;;;;;20.56;39.95;100218.81;5071934;28;20144;-74
2021/05/21 10:57:11;;;;;;;4.28;2.50;;;;;;;20.61;40.58;100202.06;5072712;28;20393;-74
2021/05/21 10:59:44;;;;;;;3.60;1.92;;;;;;;20.85;39.55;100213.09;5072481;28;20037;-76
2021/05/21 11:02:17;;;;;;;3.90;1.60;;;;;;;20.88;39.33;100206.50;5072486;28;20044;-80
2021/05/21 11:04:46;;;;;;;2.90;1.48;;;;;;;21.06;41.34;100202.72;5072537;28;20045;-71
2021/05/21 11:07:31;;;;;;;3.83;1.75;;;;;;;21.01;39.83;100177.94;5072221;28;20067;-72
2021/05/21 11:10:00;;;;;;;6.68;1.98;;;;;;;21.09;39.36;100187.97;5072422;28;20044;-76
2021/05/21 11:12:43;;;;;;;3.35;1.15;;;;;;;21.00;40.16;100170.81;5071793;28;20396;-76
2021/05/21 11:15:26;;;;;;;;;;;;;;;21.20;37.89;100167.84;5075313;28;20457;-85
2021/05/21 11:18:13;;;;;;;3.67;1.23;;;;;;;20.90;40.33;100164.66;5072527;28;19926;-81
2021/05/21 11:21:02;;;;;;;3.03;1.45;;;;;;;20.80;39.08;100155.78;5072711;28;20477;-76
2021/05/21 11:23:36;;;;;;;4.47;1.40;;;;;;;21.04;39.17;100160.50;5072160;28;20052;-80
2021/05/21 11:26:21;;;;;;;3.70;1.30;;;;;;;20.95;39.27;100165.03;5072468;28;20161;-77
2021/05/21 11:28:50;;;;;;;3.20;1.30;;;;;;;20.79;40.49;100157.66;5072250;28;20036;-73
2021/05/21 11:31:21;;;;;;;3.20;2.05;;;;;;;21.12;39.27;100169.50;5057269;28;20555;-78
2021/05/21 11:33:51;;;;;;;2.63;1.17;;;;;;;20.78;40.15;100164.06;5065991;28;20041;-75
2021/05/21 11:36:23;;;;;;;2.35;1.40;;;;;;;21.07;40.46;100166.44;5068675;28;20047;-75
2021/05/21 11:38:52;;;;;;;4.50;1.40;;;;;;;21.22;40.35;100157.69;5076191;28;20086;-73